sensor_id;sensor_type;location;lat;lon;timestamp;P1;durP1;ratioP1;P2;durP2;ratioP2
3006;SDS011;1513;47.650;10.720;2022-07-22T00:00:38;30.53;;;18.33;;
3006;SDS011;1513;47.650;10.720;2022-07-22T00:03:42;27.13;;;18.10;;
3006;SDS011;1513;47.650;10.720;2022-07-22T00:06:45;24.00;;;15.97;;
3006;SDS011;1513;47.650;10.720;2022-07-22T00:09:49;26.50;;;16.83;;
3006;SDS011;1513;47.650;10.720;2022-07-22T00:12:53;28.90;;;18.33;;
3006;SDS011;1513;47.650;10.720;2022-07-22T00:15:57;27.90;;;17.70;;
3006;SDS011;1513;47.650;10.720;2022-07-22T00:19:01;26.60;;;18.17;;
3006;SDS011;1513;47.650;10.720;2022-07-22T00:22:04;22.60;;;15.70;;
3006;SDS011;1513;47.650;10.720;2022-07-22T00:25:08;25.20;;;16.53;;
3006;SDS011;1513;47.650;10.720;2022-07-22T00:28:11;25.13;;;17.07;;
3006;SDS011;1513;47.650;10.720;2022-07-22T00:31:15;30.17;;;19.17;;
3006;SDS011;1513;47.650;10.720;2022-07-22T00:34:18;29.33;;;19.70;;
3006;SDS011;1513;47.650;10.720;2022-07-22T00:37:21;28.23;;;18.60;;
3006;SDS011;1513;47.650;10.720;2022-07-22T00:40:25;29.07;;;16.90;;
3006;SDS011;1513;47.650;10.720;2022-07-22T00:43:47;25.43;;;17.33;;
3006;SDS011;1513;47.650;10.720;2022-07-22T00:46:55;26.40;;;16.50;;
3006;SDS011;1513;47.650;10.720;2022-07-22T00:49:57;25.10;;;17.30;;
3006;SDS011;1513;47.650;10.720;2022-07-22T00:53:01;30.20;;;18.30;;
3006;SDS011;1513;47.650;10.720;2022-07-22T00:56:05;21.47;;;15.37;;
3006;SDS011;1513;47.650;10.720;2022-07-22T00:59:10;23.10;;;15.90;;
3006;SDS011;1513;47.650;10.720;2022-07-22T01:02:15;27.20;;;16.13;;
3006;SDS011;1513;47.650;10.720;2022-07-22T01:05:19;21.87;;;14.70;;
3006;SDS011;1513;47.650;10.720;2022-07-22T01:08:22;28.97;;;15.87;;
3006;SDS011;1513;47.650;10.720;2022-07-22T01:11:26;26.53;;;16.13;;
3006;SDS011;1513;47.650;10.720;2022-07-22T01:14:29;24.43;;;16.70;;
3006;SDS011;1513;47.650;10.720;2022-07-22T01:17:33;26.30;;;16.77;;
3006;SDS011;1513;47.650;10.720;2022-07-22T01:20:36;24.37;;;15.60;;
3006;SDS011;1513;47.650;10.720;2022-07-22T01:23:40;21.73;;;15.37;;
3006;SDS011;1513;47.650;10.720;2022-07-22T01:26:43;23.13;;;15.57;;
3006;SDS011;1513;47.650;10.720;2022-07-22T01:29:47;23.60;;;16.07;;
3006;SDS011;1513;47.650;10.720;2022-07-22T01:32:51;24.87;;;16.20;;
3006;SDS011;1513;47.650;10.720;2022-07-22T01:35:54;27.03;;;16.73;;
3006;SDS011;1513;47.650;10.720;2022-07-22T01:38:58;25.80;;;16.07;;
3006;SDS011;1513;47.650;10.720;2022-07-22T01:42:00;22.77;;;16.00;;
3006;SDS011;1513;47.650;10.720;2022-07-22T01:45:04;21.40;;;15.20;;
3006;SDS011;1513;47.650;10.720;2022-07-22T01:48:08;20.00;;;14.43;;
3006;SDS011;1513;47.650;10.720;2022-07-22T01:51:12;24.57;;;16.70;;
3006;SDS011;1513;47.650;10.720;2022-07-22T01:54:15;26.13;;;17.30;;
3006;SDS011;1513;47.650;10.720;2022-07-22T01:57:18;32.23;;;18.00;;
3006;SDS011;1513;47.650;10.720;2022-07-22T02:00:22;23.00;;;14.90;;
3006;SDS011;1513;47.650;10.720;2022-07-22T02:03:25;22.20;;;15.10;;
3006;SDS011;1513;47.650;10.720;2022-07-22T02:06:29;23.70;;;14.40;;
3006;SDS011;1513;47.650;10.720;2022-07-22T02:09:33;23.97;;;16.20;;
3006;SDS011;1513;47.650;10.720;2022-07-22T02:12:37;26.37;;;17.90;;
3006;SDS011;1513;47.650;10.720;2022-07-22T02:15:41;29.90;;;18.57;;
3006;SDS011;1513;47.650;10.720;2022-07-22T02:18:44;29.63;;;19.07;;
3006;SDS011;1513;47.650;10.720;2022-07-22T02:21:47;28.07;;;19.47;;
3006;SDS011;1513;47.650;10.720;2022-07-22T02:24:50;29.93;;;17.97;;
3006;SDS011;1513;47.650;10.720;2022-07-22T02:27:54;28.60;;;18.40;;
3006;SDS011;1513;47.650;10.720;2022-07-22T02:30:57;26.50;;;17.57;;
3006;SDS011;1513;47.650;10.720;2022-07-22T02:34:00;28.20;;;17.07;;
3006;SDS011;1513;47.650;10.720;2022-07-22T02:37:04;26.70;;;17.87;;
3006;SDS011;1513;47.650;10.720;2022-07-22T02:40:08;26.70;;;16.87;;
3006;SDS011;1513;47.650;10.720;2022-07-22T02:43:11;27.30;;;16.47;;
3006;SDS011;1513;47.650;10.720;2022-07-22T02:46:15;23.43;;;15.23;;
3006;SDS011;1513;47.650;10.720;2022-07-22T02:49:18;25.63;;;16.37;;
3006;SDS011;1513;47.650;10.720;2022-07-22T02:52:21;24.53;;;15.93;;
3006;SDS011;1513;47.650;10.720;2022-07-22T02:55:25;26.37;;;15.50;;
3006;SDS011;1513;47.650;10.720;2022-07-22T02:58:28;25.30;;;15.37;;
3006;SDS011;1513;47.650;10.720;2022-07-22T03:01:32;22.53;;;15.57;;
3006;SDS011;1513;47.650;10.720;2022-07-22T03:04:36;22.97;;;14.47;;
3006;SDS011;1513;47.650;10.720;2022-07-22T03:07:39;22.30;;;14.53;;
3006;SDS011;1513;47.650;10.720;2022-07-22T03:10:42;19.83;;;14.10;;
3006;SDS011;1513;47.650;10.720;2022-07-22T03:13:46;23.77;;;15.93;;
3006;SDS011;1513;47.650;10.720;2022-07-22T03:16:48;19.37;;;13.27;;
3006;SDS011;1513;47.650;10.720;2022-07-22T03:19:52;22.00;;;15.10;;
3006;SDS011;1513;47.650;10.720;2022-07-22T03:22:55;23.40;;;15.83;;
3006;SDS011;1513;47.650;10.720;2022-07-22T03:25:59;24.77;;;15.23;;
3006;SDS011;1513;47.650;10.720;2022-07-22T03:29:02;28.60;;;16.73;;
3006;SDS011;1513;47.650;10.720;2022-07-22T03:32:05;25.43;;;17.47;;
3006;SDS011;1513;47.650;10.720;2022-07-22T03:35:09;25.47;;;17.50;;
3006;SDS011;1513;47.650;10.720;2022-07-22T03:38:13;31.23;;;17.17;;
3006;SDS011;1513;47.650;10.720;2022-07-22T03:41:16;23.67;;;16.10;;
3006;SDS011;1513;47.650;10.720;2022-07-22T03:44:20;23.90;;;16.00;;
3006;SDS011;1513;47.650;10.720;2022-07-22T03:47:24;16.27;;;10.90;;
3006;SDS011;1513;47.650;10.720;2022-07-22T03:50:27;24.23;;;13.63;;
3006;SDS011;1513;47.650;10.720;2022-07-22T03:53:30;20.10;;;14.47;;
3006;SDS011;1513;47.650;10.720;2022-07-22T03:56:35;20.03;;;13.30;;
3006;SDS011;1513;47.650;10.720;2022-07-22T03:59:38;18.70;;;13.60;;
3006;SDS011;1513;47.650;10.720;2022-07-22T04:02:42;18.10;;;13.10;;
3006;SDS011;1513;47.650;10.720;2022-07-22T04:05:46;19.50;;;13.17;;
3006;SDS011;1513;47.650;10.720;2022-07-22T04:08:49;18.20;;;13.70;;
3006;SDS011;1513;47.650;10.720;2022-07-22T04:11:52;22.83;;;13.87;;
3006;SDS011;1513;47.650;10.720;2022-07-22T04:14:56;27.33;;;15.70;;
3006;SDS011;1513;47.650;10.720;2022-07-22T04:17:59;30.20;;;18.27;;
3006;SDS011;1513;47.650;10.720;2022-07-22T04:21:03;30.80;;;20.30;;
3006;SDS011;1513;47.650;10.720;2022-07-22T04:24:06;29.57;;;18.77;;
3006;SDS011;1513;47.650;10.720;2022-07-22T04:27:10;24.60;;;16.97;;
3006;SDS011;1513;47.650;10.720;2022-07-22T04:30:13;25.17;;;16.30;;
3006;SDS011;1513;47.650;10.720;2022-07-22T04:33:17;26.60;;;18.33;;
3006;SDS011;1513;47.650;10.720;2022-07-22T04:36:20;28.83;;;18.43;;
3006;SDS011;1513;47.650;10.720;2022-07-22T04:39:24;31.33;;;17.03;;
3006;SDS011;1513;47.650;10.720;2022-07-22T04:42:27;19.87;;;14.30;;
3006;SDS011;1513;47.650;10.720;2022-07-22T04:45:30;21.73;;;14.70;;
3006;SDS011;1513;47.650;10.720;2022-07-22T04:48:33;18.63;;;14.60;;
3006;SDS011;1513;47.650;10.720;2022-07-22T04:51:36;16.87;;;13.63;;
3006;SDS011;1513;47.650;10.720;2022-07-22T04:54:40;19.33;;;13.30;;
3006;SDS011;1513;47.650;10.720;2022-07-22T04:57:43;20.50;;;14.70;;
3006;SDS011;1513;47.650;10.720;2022-07-22T05:00:47;21.47;;;16.00;;
3006;SDS011;1513;47.650;10.720;2022-07-22T05:03:51;18.93;;;14.77;;
3006;SDS011;1513;47.650;10.720;2022-07-22T05:06:54;22.20;;;14.80;;
3006;SDS011;1513;47.650;10.720;2022-07-22T05:09:58;21.00;;;15.23;;
3006;SDS011;1513;47.650;10.720;2022-07-22T05:13:01;17.50;;;14.43;;
3006;SDS011;1513;47.650;10.720;2022-07-22T05:16:05;14.57;;;12.93;;
3006;SDS011;1513;47.650;10.720;2022-07-22T05:19:08;16.00;;;13.87;;
3006;SDS011;1513;47.650;10.720;2022-07-22T05:22:12;16.67;;;13.10;;
3006;SDS011;1513;47.650;10.720;2022-07-22T05:25:15;17.10;;;15.30;;
3006;SDS011;1513;47.650;10.720;2022-07-22T05:28:19;19.10;;;15.20;;
3006;SDS011;1513;47.650;10.720;2022-07-22T05:31:22;18.37;;;14.40;;
3006;SDS011;1513;47.650;10.720;2022-07-22T05:34:25;16.17;;;14.57;;
3006;SDS011;1513;47.650;10.720;2022-07-22T05:37:29;16.17;;;14.47;;
3006;SDS011;1513;47.650;10.720;2022-07-22T05:40:32;15.10;;;13.50;;
3006;SDS011;1513;47.650;10.720;2022-07-22T05:43:36;14.83;;;13.10;;
3006;SDS011;1513;47.650;10.720;2022-07-22T05:46:39;13.93;;;12.50;;
3006;SDS011;1513;47.650;10.720;2022-07-22T05:49:42;15.53;;;13.60;;
3006;SDS011;1513;47.650;10.720;2022-07-22T05:52:46;15.15;;;13.55;;
3006;SDS011;1513;47.650;10.720;2022-07-22T05:55:49;12.77;;;11.55;;
3006;SDS011;1513;47.650;10.720;2022-07-22T05:58:53;13.45;;;12.10;;
3006;SDS011;1513;47.650;10.720;2022-07-22T06:01:58;13.85;;;12.45;;
3006;SDS011;1513;47.650;10.720;2022-07-22T06:05:01;12.98;;;11.73;;
3006;SDS011;1513;47.650;10.720;2022-07-22T06:08:04;14.48;;;12.88;;
3006;SDS011;1513;47.650;10.720;2022-07-22T06:11:08;13.60;;;12.20;;
3006;SDS011;1513;47.650;10.720;2022-07-22T06:14:11;14.18;;;12.77;;
3006;SDS011;1513;47.650;10.720;2022-07-22T06:17:15;15.23;;;13.73;;
3006;SDS011;1513;47.650;10.720;2022-07-22T06:20:18;15.00;;;12.63;;
3006;SDS011;1513;47.650;10.720;2022-07-22T06:23:25;13.45;;;12.35;;
3006;SDS011;1513;47.650;10.720;2022-07-22T06:26:28;13.55;;;12.25;;
3006;SDS011;1513;47.650;10.720;2022-07-22T06:29:32;13.27;;;12.10;;
3006;SDS011;1513;47.650;10.720;2022-07-22T06:32:35;14.23;;;12.60;;
3006;SDS011;1513;47.650;10.720;2022-07-22T06:35:39;13.55;;;12.32;;
3006;SDS011;1513;47.650;10.720;2022-07-22T06:38:43;13.02;;;11.90;;
3006;SDS011;1513;47.650;10.720;2022-07-22T06:41:47;13.82;;;12.48;;
3006;SDS011;1513;47.650;10.720;2022-07-22T06:44:51;13.65;;;12.45;;
3006;SDS011;1513;47.650;10.720;2022-07-22T06:47:55;13.15;;;11.98;;
3006;SDS011;1513;47.650;10.720;2022-07-22T06:50:59;13.85;;;12.65;;
3006;SDS011;1513;47.650;10.720;2022-07-22T06:54:03;13.10;;;12.00;;
3006;SDS011;1513;47.650;10.720;2022-07-22T06:57:06;12.32;;;11.15;;
3006;SDS011;1513;47.650;10.720;2022-07-22T07:00:10;12.82;;;11.57;;
3006;SDS011;1513;47.650;10.720;2022-07-22T07:03:14;12.63;;;11.52;;
3006;SDS011;1513;47.650;10.720;2022-07-22T07:06:18;11.95;;;10.68;;
3006;SDS011;1513;47.650;10.720;2022-07-22T07:09:22;13.05;;;11.80;;
3006;SDS011;1513;47.650;10.720;2022-07-22T07:12:26;13.07;;;11.65;;
3006;SDS011;1513;47.650;10.720;2022-07-22T07:15:29;18.90;;;11.63;;
3006;SDS011;1513;47.650;10.720;2022-07-22T07:18:33;12.23;;;11.02;;
3006;SDS011;1513;47.650;10.720;2022-07-22T07:21:36;13.63;;;12.05;;
3006;SDS011;1513;47.650;10.720;2022-07-22T07:24:40;12.65;;;11.45;;
3006;SDS011;1513;47.650;10.720;2022-07-22T07:27:43;12.57;;;11.38;;
3006;SDS011;1513;47.650;10.720;2022-07-22T07:30:46;12.00;;;10.48;;
3006;SDS011;1513;47.650;10.720;2022-07-22T07:33:50;14.00;;;12.68;;
3006;SDS011;1513;47.650;10.720;2022-07-22T07:36:54;12.75;;;11.55;;
3006;SDS011;1513;47.650;10.720;2022-07-22T07:39:57;14.00;;;12.48;;
3006;SDS011;1513;47.650;10.720;2022-07-22T07:43:02;12.15;;;10.95;;
3006;SDS011;1513;47.650;10.720;2022-07-22T07:46:06;11.57;;;10.48;;
3006;SDS011;1513;47.650;10.720;2022-07-22T07:49:09;13.75;;;12.45;;
3006;SDS011;1513;47.650;10.720;2022-07-22T07:52:13;13.18;;;11.02;;
3006;SDS011;1513;47.650;10.720;2022-07-22T07:55:17;12.80;;;11.73;;
3006;SDS011;1513;47.650;10.720;2022-07-22T07:58:21;13.13;;;11.93;;
3006;SDS011;1513;47.650;10.720;2022-07-22T08:01:24;16.63;;;12.20;;
3006;SDS011;1513;47.650;10.720;2022-07-22T08:04:28;13.45;;;12.05;;
3006;SDS011;1513;47.650;10.720;2022-07-22T08:07:32;14.15;;;12.77;;
3006;SDS011;1513;47.650;10.720;2022-07-22T08:10:36;17.90;;;11.25;;
3006;SDS011;1513;47.650;10.720;2022-07-22T08:13:39;12.63;;;11.32;;
3006;SDS011;1513;47.650;10.720;2022-07-22T08:16:43;13.65;;;12.25;;
3006;SDS011;1513;47.650;10.720;2022-07-22T08:19:46;13.43;;;12.13;;
3006;SDS011;1513;47.650;10.720;2022-07-22T08:22:50;14.27;;;12.88;;
3006;SDS011;1513;47.650;10.720;2022-07-22T08:25:54;13.93;;;12.52;;
3006;SDS011;1513;47.650;10.720;2022-07-22T08:28:59;14.60;;;12.38;;
3006;SDS011;1513;47.650;10.720;2022-07-22T08:32:03;14.95;;;13.35;;
3006;SDS011;1513;47.650;10.720;2022-07-22T08:35:08;16.08;;;12.73;;
3006;SDS011;1513;47.650;10.720;2022-07-22T08:38:12;18.33;;;13.50;;
3006;SDS011;1513;47.650;10.720;2022-07-22T08:41:15;15.80;;;13.37;;
3006;SDS011;1513;47.650;10.720;2022-07-22T08:44:18;16.47;;;13.73;;
3006;SDS011;1513;47.650;10.720;2022-07-22T08:47:22;19.70;;;14.27;;
3006;SDS011;1513;47.650;10.720;2022-07-22T08:50:26;15.90;;;13.63;;
3006;SDS011;1513;47.650;10.720;2022-07-22T08:53:29;15.27;;;13.43;;
3006;SDS011;1513;47.650;10.720;2022-07-22T08:56:33;16.17;;;13.77;;
3006;SDS011;1513;47.650;10.720;2022-07-22T08:59:53;14.93;;;13.43;;
3006;SDS011;1513;47.650;10.720;2022-07-22T09:02:58;17.30;;;13.33;;
3006;SDS011;1513;47.650;10.720;2022-07-22T09:06:02;18.70;;;13.97;;
3006;SDS011;1513;47.650;10.720;2022-07-22T09:09:07;17.73;;;13.90;;
3006;SDS011;1513;47.650;10.720;2022-07-22T09:12:12;15.03;;;13.50;;
3006;SDS011;1513;47.650;10.720;2022-07-22T09:15:15;16.80;;;14.47;;
3006;SDS011;1513;47.650;10.720;2022-07-22T09:21:56;16.63;;;14.10;;
3006;SDS011;1513;47.650;10.720;2022-07-22T09:28:33;16.53;;;13.60;;
3006;SDS011;1513;47.650;10.720;2022-07-22T09:31:37;17.93;;;12.60;;
3006;SDS011;1513;47.650;10.720;2022-07-22T09:34:41;16.37;;;12.73;;
3006;SDS011;1513;47.650;10.720;2022-07-22T09:37:47;14.33;;;12.20;;
3006;SDS011;1513;47.650;10.720;2022-07-22T09:40:53;16.27;;;13.03;;
3006;SDS011;1513;47.650;10.720;2022-07-22T09:43:56;16.80;;;13.20;;
3006;SDS011;1513;47.650;10.720;2022-07-22T09:47:00;14.60;;;13.07;;
3006;SDS011;1513;47.650;10.720;2022-07-22T09:50:04;16.30;;;12.07;;
3006;SDS011;1513;47.650;10.720;2022-07-22T09:53:24;15.97;;;11.33;;
3006;SDS011;1513;47.650;10.720;2022-07-22T09:56:30;15.10;;;12.40;;
3006;SDS011;1513;47.650;10.720;2022-07-22T09:59:33;15.83;;;11.87;;
3006;SDS011;1513;47.650;10.720;2022-07-22T10:02:41;13.37;;;11.97;;
3006;SDS011;1513;47.650;10.720;2022-07-22T10:05:50;16.20;;;11.90;;
3006;SDS011;1513;47.650;10.720;2022-07-22T10:08:54;15.70;;;12.83;;
3006;SDS011;1513;47.650;10.720;2022-07-22T10:11:59;18.77;;;13.17;;
3006;SDS011;1513;47.650;10.720;2022-07-22T10:15:03;14.00;;;12.30;;
3006;SDS011;1513;47.650;10.720;2022-07-22T10:18:09;17.80;;;12.67;;
3006;SDS011;1513;47.650;10.720;2022-07-22T10:21:18;13.50;;;12.07;;
3006;SDS011;1513;47.650;10.720;2022-07-22T10:24:21;14.53;;;12.00;;
3006;SDS011;1513;47.650;10.720;2022-07-22T10:30:49;13.97;;;12.47;;
3006;SDS011;1513;47.650;10.720;2022-07-22T10:33:55;16.60;;;12.87;;
3006;SDS011;1513;47.650;10.720;2022-07-22T10:36:59;13.67;;;12.10;;
3006;SDS011;1513;47.650;10.720;2022-07-22T10:40:22;13.40;;;11.73;;
3006;SDS011;1513;47.650;10.720;2022-07-22T10:46:48;15.30;;;12.03;;
3006;SDS011;1513;47.650;10.720;2022-07-22T10:50:02;14.53;;;11.80;;
3006;SDS011;1513;47.650;10.720;2022-07-22T10:53:54;14.07;;;12.67;;
3006;SDS011;1513;47.650;10.720;2022-07-22T10:57:02;15.30;;;12.93;;
3006;SDS011;1513;47.650;10.720;2022-07-22T11:00:05;16.43;;;12.73;;
3006;SDS011;1513;47.650;10.720;2022-07-22T11:03:09;15.43;;;13.63;;
3006;SDS011;1513;47.650;10.720;2022-07-22T11:06:17;15.70;;;12.40;;
3006;SDS011;1513;47.650;10.720;2022-07-22T11:09:22;16.53;;;12.60;;
3006;SDS011;1513;47.650;10.720;2022-07-22T11:12:34;18.23;;;13.80;;
3006;SDS011;1513;47.650;10.720;2022-07-22T11:15:37;13.70;;;11.87;;
3006;SDS011;1513;47.650;10.720;2022-07-22T11:18:54;15.90;;;12.40;;
3006;SDS011;1513;47.650;10.720;2022-07-22T11:22:06;17.63;;;12.23;;
3006;SDS011;1513;47.650;10.720;2022-07-22T11:25:11;13.63;;;12.20;;
3006;SDS011;1513;47.650;10.720;2022-07-22T11:28:15;15.93;;;13.10;;
3006;SDS011;1513;47.650;10.720;2022-07-22T11:31:19;15.67;;;13.10;;
3006;SDS011;1513;47.650;10.720;2022-07-22T11:34:22;17.33;;;13.00;;
3006;SDS011;1513;47.650;10.720;2022-07-22T11:37:27;15.77;;;12.77;;
3006;SDS011;1513;47.650;10.720;2022-07-22T11:40:32;14.53;;;12.53;;
3006;SDS011;1513;47.650;10.720;2022-07-22T11:43:43;16.73;;;13.00;;
3006;SDS011;1513;47.650;10.720;2022-07-22T11:46:49;19.83;;;13.37;;
3006;SDS011;1513;47.650;10.720;2022-07-22T11:49:53;14.77;;;13.27;;
3006;SDS011;1513;47.650;10.720;2022-07-22T11:52:56;17.17;;;12.97;;
3006;SDS011;1513;47.650;10.720;2022-07-22T11:56:01;15.43;;;13.53;;
3006;SDS011;1513;47.650;10.720;2022-07-22T11:59:06;18.60;;;13.67;;
3006;SDS011;1513;47.650;10.720;2022-07-22T12:02:12;16.07;;;13.50;;
3006;SDS011;1513;47.650;10.720;2022-07-22T12:05:16;17.80;;;13.90;;
3006;SDS011;1513;47.650;10.720;2022-07-22T12:08:20;17.00;;;13.37;;
3006;SDS011;1513;47.650;10.720;2022-07-22T12:11:23;16.27;;;13.90;;
3006;SDS011;1513;47.650;10.720;2022-07-22T12:14:29;17.60;;;14.40;;
3006;SDS011;1513;47.650;10.720;2022-07-22T12:17:34;24.63;;;14.13;;
3006;SDS011;1513;47.650;10.720;2022-07-22T12:20:42;17.30;;;13.20;;
3006;SDS011;1513;47.650;10.720;2022-07-22T12:23:51;14.97;;;13.37;;
3006;SDS011;1513;47.650;10.720;2022-07-22T12:26:55;15.60;;;12.77;;
3006;SDS011;1513;47.650;10.720;2022-07-22T12:30:00;18.03;;;14.20;;
3006;SDS011;1513;47.650;10.720;2022-07-22T12:33:15;16.60;;;14.13;;
3006;SDS011;1513;47.650;10.720;2022-07-22T12:36:20;23.53;;;14.47;;
3006;SDS011;1513;47.650;10.720;2022-07-22T12:39:24;15.13;;;13.57;;
3006;SDS011;1513;47.650;10.720;2022-07-22T12:42:29;15.03;;;13.37;;
3006;SDS011;1513;47.650;10.720;2022-07-22T12:45:34;15.30;;;12.97;;
3006;SDS011;1513;47.650;10.720;2022-07-22T12:48:48;15.57;;;13.87;;
3006;SDS011;1513;47.650;10.720;2022-07-22T12:52:08;14.87;;;12.90;;
3006;SDS011;1513;47.650;10.720;2022-07-22T12:55:12;15.37;;;13.77;;
3006;SDS011;1513;47.650;10.720;2022-07-22T12:58:15;16.67;;;13.13;;
3006;SDS011;1513;47.650;10.720;2022-07-22T13:01:19;14.97;;;13.40;;
3006;SDS011;1513;47.650;10.720;2022-07-22T13:04:23;19.47;;;14.17;;
3006;SDS011;1513;47.650;10.720;2022-07-22T13:07:26;17.10;;;12.90;;
3006;SDS011;1513;47.650;10.720;2022-07-22T13:10:29;15.53;;;13.27;;
3006;SDS011;1513;47.650;10.720;2022-07-22T13:13:33;19.30;;;13.20;;
3006;SDS011;1513;47.650;10.720;2022-07-22T13:16:37;15.53;;;13.20;;
3006;SDS011;1513;47.650;10.720;2022-07-22T13:19:41;14.13;;;12.33;;
3006;SDS011;1513;47.650;10.720;2022-07-22T13:22:45;15.23;;;12.50;;
3006;SDS011;1513;47.650;10.720;2022-07-22T13:25:49;15.73;;;14.03;;
3006;SDS011;1513;47.650;10.720;2022-07-22T13:28:53;14.60;;;12.63;;
3006;SDS011;1513;47.650;10.720;2022-07-22T13:31:56;17.57;;;13.80;;
3006;SDS011;1513;47.650;10.720;2022-07-22T13:34:59;16.00;;;13.00;;
3006;SDS011;1513;47.650;10.720;2022-07-22T13:38:03;16.53;;;12.90;;
3006;SDS011;1513;47.650;10.720;2022-07-22T13:41:06;20.23;;;13.07;;
3006;SDS011;1513;47.650;10.720;2022-07-22T13:44:19;24.33;;;14.00;;
3006;SDS011;1513;47.650;10.720;2022-07-22T13:47:22;14.50;;;12.73;;
3006;SDS011;1513;47.650;10.720;2022-07-22T13:50:26;15.20;;;13.60;;
3006;SDS011;1513;47.650;10.720;2022-07-22T13:53:29;14.03;;;12.63;;
3006;SDS011;1513;47.650;10.720;2022-07-22T13:56:33;17.10;;;13.70;;
3006;SDS011;1513;47.650;10.720;2022-07-22T13:59:37;18.77;;;13.10;;
3006;SDS011;1513;47.650;10.720;2022-07-22T14:02:42;15.50;;;13.07;;
3006;SDS011;1513;47.650;10.720;2022-07-22T14:05:47;15.93;;;14.23;;
3006;SDS011;1513;47.650;10.720;2022-07-22T14:08:50;16.23;;;13.30;;
3006;SDS011;1513;47.650;10.720;2022-07-22T14:11:54;14.17;;;12.77;;
3006;SDS011;1513;47.650;10.720;2022-07-22T14:14:59;18.50;;;13.00;;
3006;SDS011;1513;47.650;10.720;2022-07-22T14:18:03;17.17;;;13.80;;
3006;SDS011;1513;47.650;10.720;2022-07-22T14:21:09;14.73;;;13.20;;
3006;SDS011;1513;47.650;10.720;2022-07-22T14:24:12;14.27;;;12.77;;
3006;SDS011;1513;47.650;10.720;2022-07-22T14:27:15;18.00;;;13.20;;
3006;SDS011;1513;47.650;10.720;2022-07-22T14:30:19;15.90;;;11.17;;
3006;SDS011;1513;47.650;10.720;2022-07-22T14:33:23;15.67;;;12.30;;
3006;SDS011;1513;47.650;10.720;2022-07-22T14:36:26;14.07;;;12.60;;
3006;SDS011;1513;47.650;10.720;2022-07-22T14:39:29;13.80;;;12.40;;
3006;SDS011;1513;47.650;10.720;2022-07-22T14:42:33;14.20;;;12.40;;
3006;SDS011;1513;47.650;10.720;2022-07-22T14:45:37;15.40;;;12.47;;
3006;SDS011;1513;47.650;10.720;2022-07-22T14:48:40;16.23;;;12.93;;
3006;SDS011;1513;47.650;10.720;2022-07-22T14:51:44;15.83;;;12.73;;
3006;SDS011;1513;47.650;10.720;2022-07-22T14:54:47;13.57;;;12.17;;
3006;SDS011;1513;47.650;10.720;2022-07-22T14:57:50;13.90;;;12.50;;
3006;SDS011;1513;47.650;10.720;2022-07-22T15:00:54;12.87;;;11.67;;
3006;SDS011;1513;47.650;10.720;2022-07-22T15:03:57;14.37;;;12.70;;
3006;SDS011;1513;47.650;10.720;2022-07-22T15:07:01;13.63;;;12.23;;
3006;SDS011;1513;47.650;10.720;2022-07-22T15:10:08;14.10;;;12.27;;
3006;SDS011;1513;47.650;10.720;2022-07-22T15:13:12;14.93;;;12.77;;
3006;SDS011;1513;47.650;10.720;2022-07-22T15:16:16;14.07;;;12.40;;
3006;SDS011;1513;47.650;10.720;2022-07-22T15:19:20;17.87;;;12.47;;
3006;SDS011;1513;47.650;10.720;2022-07-22T15:22:23;13.10;;;11.77;;
3006;SDS011;1513;47.650;10.720;2022-07-22T15:25:27;13.63;;;12.33;;
3006;SDS011;1513;47.650;10.720;2022-07-22T15:28:31;14.40;;;12.33;;
3006;SDS011;1513;47.650;10.720;2022-07-22T15:31:35;14.77;;;12.23;;
3006;SDS011;1513;47.650;10.720;2022-07-22T15:34:38;20.43;;;13.53;;
3006;SDS011;1513;47.650;10.720;2022-07-22T15:37:42;18.53;;;11.67;;
3006;SDS011;1513;47.650;10.720;2022-07-22T15:40:46;13.53;;;12.13;;
3006;SDS011;1513;47.650;10.720;2022-07-22T15:43:49;18.47;;;11.40;;
3006;SDS011;1513;47.650;10.720;2022-07-22T15:46:54;12.53;;;11.23;;
3006;SDS011;1513;47.650;10.720;2022-07-22T15:49:59;14.30;;;12.60;;
3006;SDS011;1513;47.650;10.720;2022-07-22T15:53:02;13.03;;;11.63;;
3006;SDS011;1513;47.650;10.720;2022-07-22T15:56:06;15.63;;;12.43;;
3006;SDS011;1513;47.650;10.720;2022-07-22T15:59:10;13.93;;;11.77;;
3006;SDS011;1513;47.650;10.720;2022-07-22T16:02:32;12.97;;;11.70;;
3006;SDS011;1513;47.650;10.720;2022-07-22T16:05:36;13.80;;;12.40;;
3006;SDS011;1513;47.650;10.720;2022-07-22T16:08:40;17.07;;;12.77;;
3006;SDS011;1513;47.650;10.720;2022-07-22T16:11:43;18.00;;;12.30;;
3006;SDS011;1513;47.650;10.720;2022-07-22T16:14:47;13.43;;;12.00;;
3006;SDS011;1513;47.650;10.720;2022-07-22T16:17:50;14.80;;;12.80;;
3006;SDS011;1513;47.650;10.720;2022-07-22T16:20:54;12.40;;;11.20;;
3006;SDS011;1513;47.650;10.720;2022-07-22T16:23:57;15.70;;;11.43;;
3006;SDS011;1513;47.650;10.720;2022-07-22T16:27:01;14.77;;;11.57;;
3006;SDS011;1513;47.650;10.720;2022-07-22T16:30:04;12.80;;;11.23;;
3006;SDS011;1513;47.650;10.720;2022-07-22T16:33:09;13.00;;;11.33;;
3006;SDS011;1513;47.650;10.720;2022-07-22T16:36:12;13.00;;;11.60;;
3006;SDS011;1513;47.650;10.720;2022-07-22T16:39:15;13.30;;;11.70;;
3006;SDS011;1513;47.650;10.720;2022-07-22T16:42:20;13.20;;;11.80;;
3006;SDS011;1513;47.650;10.720;2022-07-22T16:45:23;14.10;;;12.20;;
3006;SDS011;1513;47.650;10.720;2022-07-22T16:48:28;13.27;;;11.97;;
3006;SDS011;1513;47.650;10.720;2022-07-22T16:51:32;15.60;;;12.23;;
3006;SDS011;1513;47.650;10.720;2022-07-22T16:54:36;16.33;;;11.90;;
3006;SDS011;1513;47.650;10.720;2022-07-22T16:57:39;11.70;;;10.50;;
3006;SDS011;1513;47.650;10.720;2022-07-22T17:00:43;13.30;;;11.90;;
3006;SDS011;1513;47.650;10.720;2022-07-22T17:03:46;16.33;;;11.60;;
3006;SDS011;1513;47.650;10.720;2022-07-22T17:06:50;14.60;;;11.23;;
3006;SDS011;1513;47.650;10.720;2022-07-22T17:09:54;13.70;;;12.30;;
3006;SDS011;1513;47.650;10.720;2022-07-22T17:12:57;12.43;;;11.00;;
3006;SDS011;1513;47.650;10.720;2022-07-22T17:16:01;13.83;;;12.43;;
3006;SDS011;1513;47.650;10.720;2022-07-22T17:19:05;12.73;;;11.47;;
3006;SDS011;1513;47.650;10.720;2022-07-22T17:22:09;12.33;;;11.00;;
3006;SDS011;1513;47.650;10.720;2022-07-22T17:25:12;12.70;;;11.40;;
3006;SDS011;1513;47.650;10.720;2022-07-22T17:28:16;12.17;;;10.93;;
3006;SDS011;1513;47.650;10.720;2022-07-22T17:31:20;11.90;;;10.70;;
3006;SDS011;1513;47.650;10.720;2022-07-22T17:34:25;14.10;;;10.50;;
3006;SDS011;1513;47.650;10.720;2022-07-22T17:37:28;12.37;;;11.07;;
3006;SDS011;1513;47.650;10.720;2022-07-22T17:40:32;12.43;;;11.23;;
3006;SDS011;1513;47.650;10.720;2022-07-22T17:43:36;19.13;;;10.93;;
3006;SDS011;1513;47.650;10.720;2022-07-22T17:46:39;13.37;;;11.63;;
3006;SDS011;1513;47.650;10.720;2022-07-22T17:49:43;11.83;;;10.63;;
3006;SDS011;1513;47.650;10.720;2022-07-22T17:52:47;12.03;;;10.80;;
3006;SDS011;1513;47.650;10.720;2022-07-22T17:55:50;11.97;;;10.77;;
3006;SDS011;1513;47.650;10.720;2022-07-22T17:58:54;12.30;;;11.10;;
3006;SDS011;1513;47.650;10.720;2022-07-22T18:01:58;11.67;;;10.57;;
3006;SDS011;1513;47.650;10.720;2022-07-22T18:05:01;11.40;;;10.30;;
3006;SDS011;1513;47.650;10.720;2022-07-22T18:08:07;13.90;;;11.40;;
3006;SDS011;1513;47.650;10.720;2022-07-22T18:11:11;12.07;;;10.83;;
3006;SDS011;1513;47.650;10.720;2022-07-22T18:14:15;11.33;;;10.20;;
3006;SDS011;1513;47.650;10.720;2022-07-22T18:17:19;12.83;;;11.23;;
3006;SDS011;1513;47.650;10.720;2022-07-22T18:20:23;13.03;;;11.73;;
3006;SDS011;1513;47.650;10.720;2022-07-22T18:23:26;11.67;;;10.40;;
3006;SDS011;1513;47.650;10.720;2022-07-22T18:26:31;12.90;;;10.17;;